Time;durP1;ratioP1;P1;durP2;ratioP2;P2;SDS_P1;SDS_P2;PMS_P1;PMS_P2;Temp;Humidity;BMP_temperature;BMP_pressure;BME280_temperature;BME280_humidity;BME280_pressure;Samples;Min_cycle;Max_cycle;Signal;HPM_P1;HPM_P2
2022/03/20 10:14:08;;;;;;;16.98;11.68;;;20.60;64.10;;;;;;7376127;19;20855;-70
2022/03/20 10:16:36;;;;;;;14.55;10.45;;;9.50;64.80;;;;;;7379151;19;20449;-68
2022/03/20 10:19:01;;;;;;;17.45;10.50;;;9.50;65.40;;;;;;7375768;19;20321;-70
2022/03/20 10:21:45;;;;;;;16.15;10.60;;;9.60;65.60;;;;;;7374096;19;20353;-68
2022/03/20 10:24:16;;;;;;;16.38;10.75;;;9.70;64.50;;;;;;7273184;19;2004373;-68
2022/03/20 10:26:42;;;;;;;13.65;10.23;;;9.90;64.60;;;;;;7379731;19;20356;-70
2022/03/20 10:29:17;;;;;;;13.73;9.50;;;10.20;61.90;;;;;;7376012;19;20995;-71
2022/03/20 10:31:50;;;;;;;12.48;9.88;;;10.40;60.30;;;;;;7373216;19;20341;-72
2022/03/20 10:34:15;;;;;;;16.02;10.68;;;10.50;60.00;;;;;;7378585;19;20369;-69
2022/03/20 10:36:43;;;;;;;14.02;10.20;;;10.60;58.50;;;;;;7377614;19;21289;-70
2022/03/20 10:39:19;;;;;;;13.63;9.95;;;10.80;59.20;;;;;;7376477;19;20304;-69
2022/03/20 10:41:49;;;;;;;12.57;10.00;;;11.10;58.30;;;;;;7374685;19;20396;-69
2022/03/20 10:44:16;;;;;;;13.50;9.48;;;11.10;55.90;;;;;;7375781;19;21032;-70
2022/03/20 10:46:42;;;;;;;12.70;9.75;;;11.30;56.40;;;;;;7376600;19;20316;-70
2022/03/20 10:49:09;;;;;;;13.93;9.50;;;11.50;55.10;;;;;;7379563;19;20319;-71
2022/03/20 10:51:39;;;;;;;14.90;9.00;;;11.40;53.30;;;;;;7379619;19;20958;-71
2022/03/20 10:54:22;;;;;;;11.80;8.57;;;11.70;54.60;;;;;;7377099;19;20380;-69
2022/03/20 10:56:58;;;;;;;10.73;8.45;;;12.10;55.30;;;;;;7273636;19;2004226;-69
2022/03/20 10:59:25;;;;;;;10.43;8.75;;;12.60;56.30;;;;;;7276076;19;2004473;-69
2022/03/20 11:01:51;;;;;;;10.80;8.82;;;12.60;52.90;;;;;;7375759;19;20339;-68
2022/03/20 11:04:19;;;;;;;13.32;9.13;;;12.80;52.80;;;;;;7382935;19;20333;-70
2022/03/20 11:06:46;;;;;;;9.70;7.55;;;12.60;50.70;;;;;;7384149;19;20313;-70
2022/03/20 11:09:12;;;;;;;12.55;8.73;;;12.80;51.90;;;;;;7382918;19;20871;-70
2022/03/20 11:11:43;;;;;;;13.60;8.47;;;12.90;50.90;;;;;;7384147;19;20328;-69
2022/03/20 11:14:10;;;;;;;10.57;8.13;;;12.90;49.90;;;;;;7380108;19;20970;-69
2022/03/20 11:16:38;;;;;;;9.50;7.70;;;13.00;49.30;;;;;;7377306;19;20377;-69
2022/03/20 11:19:09;;;;;;;11.00;7.75;;;13.10;48.60;;;;;;7381647;19;20328;-70
2022/03/20 11:21:37;;;;;;;10.55;8.18;;;13.60;50.90;;;;;;7381962;19;20382;-70
2022/03/20 11:24:03;;;;;;;11.63;8.10;;;13.60;47.10;;;;;;7380685;19;20329;-70
2022/03/20 11:26:31;;;;;;;10.65;8.40;;;13.60;47.70;;;;;;7382416;19;20343;-70
2022/03/20 11:29:01;;;;;;;9.30;7.80;;;13.80;48.70;;;;;;7382246;19;20320;-70
2022/03/20 11:31:27;;;;;;;10.88;7.53;;;13.90;47.50;;;;;;7382475;19;20859;-69
2022/03/20 11:33:55;;;;;;;9.18;7.47;;;14.10;46.90;;;;;;7375910;19;20986;-71
2022/03/20 11:36:21;;;;;;;11.07;7.43;;;14.10;45.00;;;;;;7366691;19;20349;-72
2022/03/20 11:39:24;;;;;;;13.32;8.02;;;14.00;44.80;;;;;;7385016;19;20312;-70
2022/03/20 11:42:21;;;;;;;9.73;7.68;;;14.50;46.60;;;;;;7266770;19;2005540;-70
2022/03/20 11:44:59;;;;;;;10.43;7.10;;;14.40;46.10;;;;;;7274880;19;2004385;-71
2022/03/20 11:47:29;;;;;;;9.05;7.22;;;14.20;44.20;;;;;;7377171;19;20423;-71
2022/03/20 11:50:24;;;;;;;10.32;7.85;;;14.60;45.80;;;;;;7385926;19;20386;-72
2022/03/20 11:53:04;;;;;;;12.37;7.30;;;14.40;45.40;;;;;;7383887;19;20428;-72
2022/03/20 11:55:48;;;;;;;10.15;7.50;;;14.60;44.50;;;;;;7383554;19;20341;-73
2022/03/20 11:58:20;;;;;;;11.30;7.65;;;14.60;42.90;;;;;;7283042;19;2004343;-71
2022/03/20 12:01:05;;;;;;;10.93;6.75;;;14.90;44.20;;;;;;7382448;19;20657;-72
2022/03/20 12:03:43;;;;;;;16.58;8.07;;;15.10;44.50;;;;;;7033413;19;2004538;-72
2022/03/20 12:06:43;;;;;;;8.67;7.20;;;15.50;43.90;;;;;;7288799;19;651275;-73
2022/03/20 12:09:41;;;;;;;12.55;8.30;;;15.70;42.70;;;;;;7351170;19;20324;-72
2022/03/20 12:12:18;;;;;;;10.38;7.82;;;15.40;42.20;;;;;;7310482;19;2004964;-71
2022/03/20 12:14:51;;;;;;;10.32;7.78;;;15.20;41.60;;;;;;7413964;19;20995;-72
2022/03/20 12:17:17;;;;;;;11.23;8.15;;;15.30;43.00;;;;;;7401334;19;20863;-72
2022/03/20 12:19:49;;;;;;;11.17;8.23;;;15.30;43.60;;;;;;7414114;19;20337;-73
2022/03/20 12:22:19;;;;;;;11.73;8.13;;;15.20;42.60;;;;;;7412929;19;20344;-74
2022/03/20 12:24:54;;;;;;;15.30;9.35;;;15.20;43.00;;;;;;7414369;19;20348;-72
2022/03/20 12:27:20;;;;;;;9.73;7.30;;;15.40;43.10;;;;;;7405392;19;20762;-73
2022/03/20 12:29:46;;;;;;;9.23;7.50;;;15.40;42.00;;;;;;7404453;19;20347;-72
2022/03/20 12:32:14;;;;;;;10.55;8.23;;;15.70;42.50;;;;;;7400276;19;20653;-72
2022/03/20 12:34:44;;;;;;;13.10;8.25;;;16.00;42.00;;;;;;7409041;19;20334;-72
2022/03/20 12:37:49;;;;;;;10.00;7.35;;;15.80;40.30;;;;;;7404869;19;20409;-72
2022/03/20 12:40:20;;;;;;;8.57;6.10;;;16.00;39.80;;;;;;7310363;19;2006510;-71
2022/03/20 12:43:03;;;;;;;8.20;6.97;;;15.90;38.50;;;;;;7412321;19;20471;-72
2022/03/20 12:45:29;;;;;;;9.77;5.97;;;16.00;40.50;;;;;;7306820;19;2004508;-73
2022/03/20 12:47:59;;;;;;;14.98;6.55;;;16.20;38.30;;;;;;7412472;19;20855;-73
2022/03/20 12:50:26;;;;;;;8.27;5.37;;;16.20;38.50;;;;;;7413018;19;20343;-73
2022/03/20 12:53:06;;;;;;;7.72;5.45;;;16.60;38.80;;;;;;7412015;19;20316;-72
2022/03/20 12:55:32;;;;;;;6.90;4.68;;;16.80;38.00;;;;;;7308905;19;2004303;-72
2022/03/20 12:58:00;;;;;;;5.53;4.50;;;16.80;35.60;;;;;;7414662;19;20880;-73
2022/03/20 13:00:28;;;;;;;6.05;4.68;;;17.00;36.90;;;;;;7411713;19;20324;-73
2022/03/20 13:03:01;;;;;;;6.78;4.90;;;17.30;38.60;;;;;;7410386;19;20305;-72
2022/03/20 13:05:27;;;;;;;8.68;5.72;;;17.60;37.20;;;;;;7413763;19;20325;-72
2022/03/20 13:07:53;;;;;;;7.15;5.03;;;17.40;36.70;;;;;;7410611;19;20332;-72
2022/03/20 13:10:20;;;;;;;6.18;5.05;;;17.50;37.40;;;;;;7413962;19;20344;-73
2022/03/20 13:12:58;;;;;;;7.23;5.40;;;16.60;35.50;;;;;;7416867;19;20299;-72
2022/03/20 13:15:37;;;;;;;6.37;5.13;;;16.60;34.80;;;;;;7313438;19;2004369;-74
2022/03/20 13:18:05;;;;;;;7.53;5.50;;;16.40;34.80;;;;;;7284884;19;2004586;-72
2022/03/20 13:20:32;;;;;;;6.22;5.15;;;16.40;36.40;;;;;;7381130;19;20336;-73
2022/03/20 13:23:04;;;;;;;5.60;4.97;;;16.60;38.10;;;;;;7384132;19;20316;-72
2022/03/20 13:25:31;;;;;;;6.63;5.18;;;16.90;36.20;;;;;;7386110;19;20312;-73
2022/03/20 13:27:56;;;;;;;6.03;4.88;;;16.50;34.60;;;;;;7379890;19;20361;-72
2022/03/20 13:30:35;;;;;;;6.03;4.97;;;16.30;34.70;;;;;;7382698;19;20368;-73
2022/03/20 13:33:03;;;;;;;6.38;5.22;;;16.20;34.90;;;;;;7381020;19;20304;-74
2022/03/20 13:35:29;;;;;;;6.88;5.53;;;16.80;35.90;;;;;;7384890;19;20540;-74
2022/03/20 13:37:59;;;;;;;5.87;5.20;;;17.10;36.10;;;;;;7386048;19;20329;-73
2022/03/20 13:40:26;;;;;;;9.15;5.88;;;16.90;33.90;;;;;;7365286;19;20433;-73
2022/03/20 13:42:52;;;;;;;5.90;4.50;;;17.10;35.10;;;;;;7381514;19;20319;-73
2022/03/20 13:45:18;;;;;;;7.20;5.60;;;17.00;34.70;;;;;;7385956;19;21026;-74
2022/03/20 13:47:44;;;;;;;8.20;5.95;;;16.70;34.20;;;;;;7381147;19;20900;-75
2022/03/20 13:50:11;;;;;;;5.95;5.07;;;16.50;34.60;;;;;;7381020;19;20333;-72
2022/03/20 13:52:37;;;;;;;6.47;5.20;;;16.60;34.80;;;;;;7382955;19;20312;-73
2022/03/20 13:55:07;;;;;;;6.03;5.20;;;16.90;36.10;;;;;;7382754;19;20979;-74
2022/03/20 13:57:33;;;;;;;6.40;5.47;;;17.40;36.40;;;;;;7382905;19;20368;-73
2022/03/20 14:00:10;;;;;;;6.20;4.78;;;17.00;34.30;;;;;;7383599;19;20324;-73
2022/03/20 14:02:48;;;;;;;5.30;4.40;;;16.80;34.50;;;;;;7274814;19;2003992;-74
2022/03/20 14:05:24;;;;;;;6.63;4.93;;;16.70;34.70;;;;;;7277450;19;2004725;-74
2022/03/20 14:08:04;;;;;;;6.40;5.15;;;17.00;35.90;;;;;;7383015;19;20888;-72
2022/03/20 14:10:30;;;;;;;6.32;5.00;;;16.90;33.50;;;;;;7281048;19;2004433;-73
2022/03/20 14:13:24;;;;;;;6.00;4.75;;;17.50;36.70;;;;;;7380983;19;20654;-73
2022/03/20 14:16:08;;;;;;;6.97;5.10;;;17.70;34.40;;;;;;7281033;19;2006071;-73
2022/03/20 14:18:42;;;;;;;6.03;4.68;;;17.30;33.40;;;;;;7279595;19;2004549;-72
2022/03/20 14:21:16;;;;;;;5.03;4.47;;;17.30;33.70;;;;;;7387483;19;20715;-74
2022/03/20 14:23:52;;;;;;;6.13;5.05;;;17.20;34.10;;;;;;7381409;19;20304;-73
2022/03/20 14:26:21;;;;;;;7.60;5.20;;;17.10;35.50;;;;;;7280792;19;2006299;-74
2022/03/20 14:28:47;;;;;;;5.68;4.82;;;17.00;35.80;;;;;;7377951;19;20324;-73
2022/03/20 14:39:40;;;;;;;6.90;5.00;;;15.80;33.70;;;;;;7280558;19;2004604;-72
2022/03/20 14:42:06;;;;;;;6.85;4.95;;;15.60;34.40;;;;;;7279624;19;2004695;-73
2022/03/20 14:44:32;;;;;;;5.37;4.87;;;15.20;34.40;;;;;;7384651;19;20371;-72
2022/03/20 14:47:05;;;;;;;7.47;4.82;;;14.90;34.30;;;;;;7385328;19;20407;-73
2022/03/20 14:49:34;;;;;;;5.43;4.88;;;15.00;35.80;;;;;;7385152;19;20331;-73
2022/03/20 14:52:01;;;;;;;7.20;4.80;;;15.20;35.80;;;;;;7378196;19;20328;-73
2022/03/20 14:54:27;;;;;;;7.38;4.82;;;15.50;36.20;;;;;;7380668;19;20373;-72
2022/03/20 14:56:56;;;;;;;5.38;4.57;;;15.50;35.80;;;;;;7381851;19;20868;-72
2022/03/20 14:59:22;;;;;;;6.20;5.20;;;15.50;35.10;;;;;;7381550;19;20308;-75
2022/03/20 15:01:47;;;;;;;6.90;5.27;;;15.40;35.70;;;;;;7377125;19;20331;-72
2022/03/20 15:04:16;;;;;;;6.47;5.22;;;15.30;35.10;;;;;;7377968;19;20360;-74
2022/03/20 15:06:46;;;;;;;7.70;5.50;;;15.30;35.40;;;;;;7379612;19;20360;-73
2022/03/20 15:11:57;;;;;;;6.28;5.00;;;15.30;37.00;;;;;;7278188;19;2004255;-72
2022/03/20 15:14:23;;;;;;;5.97;5.37;;;15.30;36.70;;;;;;7383466;19;20397;-73
2022/03/20 15:16:49;;;;;;;6.03;5.35;;;15.10;36.10;;;;;;7379668;19;20316;-72
2022/03/20 15:19:15;;;;;;;5.25;4.75;;;14.90;36.10;;;;;;7379463;19;20327;-72
2022/03/20 15:21:41;;;;;;;6.37;5.10;;;14.80;36.70;;;;;;7383437;19;20316;-72
2022/03/20 15:24:07;;;;;;;7.97;5.40;;;14.60;37.20;;;;;;7380481;19;20328;-73
2022/03/20 15:26:34;;;;;;;6.43;5.20;;;14.80;37.60;;;;;;7364928;19;20895;-72
2022/03/20 15:29:00;;;;;;;8.20;5.20;;;14.60;36.50;;;;;;7380273;19;20674;-73
2022/03/20 15:31:26;;;;;;;6.27;4.97;;;14.60;36.20;;;;;;7380085;19;20324;-72
2022/03/20 15:33:52;;;;;;;6.88;5.07;;;14.70;37.00;;;;;;7377228;19;20344;-73
2022/03/20 15:36:22;;;;;;;5.07;4.53;;;14.50;35.60;;;;;;7380034;19;20336;-73
2022/03/20 15:38:53;;;;;;;6.38;5.05;;;14.90;37.40;;;;;;7380683;19;20329;-73
2022/03/20 15:41:19;;;;;;;5.90;5.30;;;15.00;35.40;;;;;;7381278;19;20709;-73
2022/03/20 15:43:45;;;;;;;7.30;5.00;;;14.90;35.40;;;;;;7377766;19;20313;-73
2022/03/20 15:46:11;;;;;;;7.35;5.07;;;14.80;35.80;;;;;;7379173;19;20718;-73
2022/03/20 15:48:37;;;;;;;5.75;4.72;;;14.80;35.60;;;;;;7379289;19;20363;-72
2022/03/20 15:51:03;;;;;;;7.30;5.47;;;14.90;35.90;;;;;;7379535;19;20325;-72
2022/03/20 15:53:29;;;;;;;6.90;5.03;;;15.00;35.70;;;;;;7370326;19;20363;-72
2022/03/20 15:55:58;;;;;;;6.22;5.22;;;15.20;36.70;;;;;;7377515;19;20437;-72
2022/03/20 15:58:33;;;;;;;7.80;5.15;;;14.70;35.60;;;;;;7376991;19;20336;-72
2022/03/20 16:00:59;;;;;;;6.03;5.40;;;14.60;36.60;;;;;;7378949;19;20316;-73
2022/03/20 16:03:25;;;;;;;9.40;6.00;;;14.40;37.60;;;;;;7375988;19;20314;-73
2022/03/20 16:05:51;;;;;;;10.55;5.82;;;14.10;36.20;;;;;;7380288;19;20377;-73
2022/03/20 16:08:17;;;;;;;7.93;5.78;;;13.80;37.40;;;;;;7377663;19;20899;-72
2022/03/20 16:10:43;;;;;;;5.70;5.10;;;13.40;36.70;;;;;;7380982;19;20312;-71
2022/03/20 16:13:09;;;;;;;7.57;5.88;;;13.40;37.50;;;;;;7377266;19;20412;-72
2022/03/20 16:15:42;;;;;;;10.07;5.67;;;13.30;37.60;;;;;;7358772;19;20472;-73
2022/03/20 16:18:08;;;;;;;8.38;5.93;;;13.30;38.50;;;;;;7378498;19;20313;-72
2022/03/20 16:20:34;;;;;;;7.50;5.95;;;13.20;38.50;;;;;;7382710;19;20810;-71
2022/03/20 16:28:30;;;;;;;7.10;5.53;;;12.90;39.50;;;;;;7383395;19;20316;-72
2022/03/20 16:30:57;;;;;;;8.70;5.95;;;12.50;38.50;;;;;;7358999;19;20327;-73
2022/03/20 16:33:23;;;;;;;7.93;6.22;;;12.30;39.10;;;;;;7380586;19;20373;-73
2022/03/20 16:35:49;;;;;;;8.98;6.05;;;12.20;39.60;;;;;;7380254;19;20304;-72
2022/03/20 16:38:15;;;;;;;7.63;5.93;;;12.30;39.20;;;;;;7378478;19;20345;-73
2022/03/20 16:40:41;;;;;;;7.80;6.20;;;12.20;39.00;;;;;;7381920;19;20361;-72
2022/03/20 16:43:07;;;;;;;7.97;6.05;;;11.90;39.60;;;;;;7376502;19;20353;-72
2022/03/20 16:45:32;;;;;;;9.00;6.13;;;11.80;39.60;;;;;;7374977;19;20332;-73
2022/03/20 16:47:58;;;;;;;7.97;6.55;;;11.60;39.60;;;;;;7379983;19;20984;-72
2022/03/20 16:50:24;;;;;;;8.87;6.83;;;11.40;40.00;;;;;;7377812;19;20341;-72
2022/03/20 16:52:50;;;;;;;9.88;6.60;;;11.30;40.70;;;;;;7381206;19;20396;-72
2022/03/20 16:55:16;;;;;;;9.35;6.45;;;11.10;40.90;;;;;;7384664;19;20750;-73
2022/03/20 16:57:42;;;;;;;9.93;6.82;;;11.00;40.60;;;;;;7385151;19;20411;-72
2022/03/20 17:00:10;;;;;;;7.90;6.88;;;10.90;41.20;;;;;;7385578;19;20333;-73
2022/03/20 17:02:40;;;;;;;10.30;7.00;;;10.70;41.40;;;;;;7382121;19;20381;-72
2022/03/20 17:05:10;;;;;;;8.45;6.72;;;10.60;41.50;;;;;;7386483;19;20329;-73
2022/03/20 17:07:36;;;;;;;10.27;7.47;;;10.50;41.70;;;;;;7384582;19;20313;-72
2022/03/20 17:10:06;;;;;;;8.93;7.07;;;10.40;41.90;;;;;;7388269;19;20332;-72
2022/03/20 17:12:36;;;;;;;11.32;7.82;;;10.30;42.60;;;;;;7372212;19;20410;-71
2022/03/20 17:15:02;;;;;;;10.75;7.75;;;10.10;42.20;;;;;;7378805;19;20360;-73
2022/03/20 17:17:28;;;;;;;9.77;7.35;;;10.00;42.50;;;;;;7385369;19;20396;-71
2022/03/20 17:19:54;;;;;;;19.17;12.75;;;9.90;44.10;;;;;;7390532;19;20313;-72
2022/03/20 17:22:19;;;;;;;12.37;8.87;;;9.80;43.80;;;;;;7388097;19;20412;-73
2022/03/20 17:24:46;;;;;;;13.57;8.67;;;9.80;43.90;;;;;;7386649;19;20312;-73
2022/03/20 17:27:13;;;;;;;11.07;8.88;;;9.70;44.60;;;;;;7387466;19;20329;-73
2022/03/20 17:29:39;;;;;;;10.57;7.95;;;9.60;44.30;;;;;;7385782;19;20301;-73
2022/03/20 17:32:06;;;;;;;11.43;7.88;;;9.50;44.40;;;;;;7381663;19;20316;-72
2022/03/20 17:34:32;;;;;;;10.50;8.38;;;9.40;44.60;;;;;;7383947;19;20332;-72
2022/03/20 17:36:58;;;;;;;9.80;8.25;;;9.40;45.60;;;;;;7383277;19;20340;-72
2022/03/20 17:39:23;;;;;;;8.03;7.23;;;9.40;45.30;;;;;;7385800;19;20446;-72
2022/03/20 17:41:49;;;;;;;9.55;7.70;;;9.20;45.10;;;;;;7382769;19;20320;-72
2022/03/20 17:44:15;;;;;;;9.43;7.77;;;9.30;45.20;;;;;;7382181;19;20312;-72
2022/03/20 17:46:40;;;;;;;9.73;7.70;;;9.10;45.80;;;;;;7386125;19;20352;-71
2022/03/20 17:49:07;;;;;;;12.77;7.87;;;9.00;45.70;;;;;;7383575;19;20307;-72
2022/03/20 17:51:35;;;;;;;8.50;7.25;;;8.90;46.00;;;;;;7386112;19;20705;-72
2022/03/20 17:54:01;;;;;;;10.67;7.73;;;8.90;46.30;;;;;;7383633;19;20301;-72
2022/03/20 17:56:27;;;;;;;8.32;7.13;;;8.80;46.20;;;;;;7380465;19;20400;-73
2022/03/20 17:58:52;;;;;;;10.80;8.35;;;8.70;46.40;;;;;;7386259;19;20397;-72
2022/03/20 18:01:19;;;;;;;11.15;8.27;;;8.60;46.50;;;;;;7386039;19;20356;-72
2022/03/20 18:09:27;;;;;;;9.98;7.90;;;8.40;46.90;;;;;;7282084;19;2004352;-72
2022/03/20 18:11:53;;;;;;;9.82;7.47;;;8.30;47.00;;;;;;7382971;19;20353;-71
2022/03/20 18:14:18;;;;;;;11.53;8.40;;;8.30;47.10;;;;;;7385229;19;20333;-72
2022/03/20 18:16:44;;;;;;;11.15;7.43;;;8.30;47.10;;;;;;7382716;19;20320;-71
2022/03/20 18:19:10;;;;;;;9.83;7.20;;;8.20;47.20;;;;;;7385253;19;20308;-71
2022/03/20 18:21:36;;;;;;;8.32;6.88;;;8.10;47.30;;;;;;7386330;19;20304;-71
2022/03/20 18:24:02;;;;;;;9.88;7.63;;;8.10;47.40;;;;;;7379877;19;20399;-72
2022/03/20 18:26:27;;;;;;;11.13;8.20;;;8.10;47.90;;;;;;7373473;19;20416;-71
2022/03/20 18:28:53;;;;;;;13.03;7.60;;;8.00;48.10;;;;;;7381741;19;20335;-72
2022/03/20 18:31:19;;;;;;;8.77;7.53;;;8.00;48.30;;;;;;7378523;19;20352;-72
2022/03/20 18:33:45;;;;;;;8.13;7.10;;;8.00;48.50;;;;;;7355163;19;20407;-72
2022/03/20 18:36:13;;;;;;;10.63;7.85;;;7.90;48.10;;;;;;7383918;19;20861;-72
2022/03/20 18:38:41;;;;;;;12.45;8.32;;;7.90;48.10;;;;;;7381141;19;20341;-72
2022/03/20 18:41:07;;;;;;;9.57;7.72;;;7.90;48.30;;;;;;7381458;19;20868;-71
2022/03/20 18:43:34;;;;;;;13.23;9.55;;;7.80;48.50;;;;;;7381792;19;20320;-71
2022/03/20 18:46:00;;;;;;;9.48;8.18;;;7.70;48.50;;;;;;7378930;19;20337;-72
2022/03/20 18:48:25;;;;;;;11.97;7.70;;;7.60;48.90;;;;;;7380293;19;21278;-72
2022/03/20 18:50:51;;;;;;;12.07;7.78;;;7.60;49.30;;;;;;7377914;19;20341;-71
2022/03/20 18:53:17;;;;;;;9.65;7.70;;;7.50;49.50;;;;;;7378992;19;20345;-71
2022/03/20 18:55:43;;;;;;;14.40;8.55;;;7.40;49.90;;;;;;7363688;19;20329;-71
2022/03/20 18:58:09;;;;;;;10.00;7.70;;;7.40;50.40;;;;;;7381311;19;20970;-71
2022/03/20 19:00:35;;;;;;;10.55;7.63;;;7.40;50.60;;;;;;7379974;19;20344;-72
2022/03/20 19:03:01;;;;;;;10.40;7.78;;;7.40;50.80;;;;;;7380777;19;20312;-70
2022/03/20 19:05:27;;;;;;;10.25;7.40;;;7.40;50.60;;;;;;7382380;19;20347;-71
2022/03/20 19:07:52;;;;;;;9.88;7.72;;;7.50;49.50;;;;;;7382554;19;20348;-72
2022/03/20 19:10:18;;;;;;;10.57;7.23;;;7.50;49.40;;;;;;7382960;19;20361;-71
2022/03/20 19:12:45;;;;;;;8.63;6.60;;;7.40;49.30;;;;;;7377661;19;20762;-71
2022/03/20 19:15:12;;;;;;;11.50;7.45;;;7.50;49.10;;;;;;7377928;19;20701;-71
2022/03/20 19:17:38;;;;;;;11.00;6.90;;;7.30;49.40;;;;;;7380978;19;20664;-71
2022/03/20 19:20:05;;;;;;;9.98;7.35;;;7.20;49.90;;;;;;7383141;19;20317;-71
2022/03/20 19:22:31;;;;;;;8.93;6.93;;;7.30;49.80;;;;;;7384063;19;20343;-71
2022/03/20 19:24:57;;;;;;;9.13;7.47;;;7.20;49.90;;;;;;7380069;19;20404;-70
2022/03/20 19:27:23;;;;;;;9.88;7.18;;;7.20;50.20;;;;;;7374583;19;20349;-71
2022/03/20 19:29:49;;;;;;;9.25;7.00;;;7.20;49.40;;;;;;7383562;19;20332;-71
2022/03/20 19:32:16;;;;;;;10.77;7.85;;;7.20;49.40;;;;;;7380740;19;20353;-70
2022/03/20 19:40:30;;;;;;;10.05;7.32;;;7.10;49.50;;;;;;7276704;19;2004516;-71
2022/03/20 19:42:56;;;;;;;7.03;6.33;;;7.00;49.30;;;;;;7376112;19;20344;-71
2022/03/20 19:45:22;;;;;;;11.20;7.55;;;6.90;49.60;;;;;;7383819;19;20337;-71
2022/03/20 19:47:48;;;;;;;10.25;6.75;;;6.90;50.30;;;;;;7382005;19;20341;-71
2022/03/20 19:50:15;;;;;;;9.23;7.10;;;6.80;49.80;;;;;;7381485;19;20308;-70
2022/03/20 19:52:41;;;;;;;10.95;7.60;;;6.80;49.80;;;;;;7375084;19;20353;-71
2022/03/20 19:55:07;;;;;;;8.73;6.82;;;6.80;50.00;;;;;;7377977;19;20313;-71
2022/03/20 19:57:33;;;;;;;10.35;7.40;;;6.80;49.80;;;;;;7379348;19;20326;-71
2022/03/20 19:59:59;;;;;;;10.37;7.57;;;6.80;50.30;;;;;;7381093;19;20404;-71
2022/03/20 20:02:25;;;;;;;8.65;6.43;;;6.80;50.20;;;;;;7374900;19;20347;-71
2022/03/20 20:04:51;;;;;;;11.13;7.00;;;6.80;50.40;;;;;;7381615;19;20363;-71
2022/03/20 20:07:16;;;;;;;8.07;7.00;;;6.70;50.60;;;;;;7381604;19;20420;-71
2022/03/20 20:09:42;;;;;;;9.43;7.33;;;6.70;50.40;;;;;;7381141;19;20439;-70
2022/03/20 20:12:08;;;;;;;12.27;7.10;;;6.70;50.80;;;;;;7380769;19;20545;-71
2022/03/20 20:14:49;;;;;;;9.80;7.40;;;6.60;50.80;;;;;;7380378;19;20864;-71
2022/03/20 20:17:21;;;;;;;8.87;7.23;;;6.50;50.70;;;;;;7379130;19;20361;-71
2022/03/20 20:19:48;;;;;;;8.27;6.72;;;6.50;50.60;;;;;;7382610;19;21138;-71
2022/03/20 20:22:14;;;;;;;8.05;6.75;;;6.50;50.90;;;;;;7363810;19;20344;-71
2022/03/20 20:24:40;;;;;;;10.10;7.22;;;6.40;51.60;;;;;;7378857;19;20340;-71
2022/03/20 20:27:06;;;;;;;10.10;6.60;;;6.30;51.90;;;;;;7382312;19;20971;-71
2022/03/20 20:29:32;;;;;;;10.60;7.30;;;6.20;52.60;;;;;;7387387;19;20314;-70
2022/03/20 20:31:58;;;;;;;9.18;7.07;;;6.20;53.70;;;;;;7383762;19;20368;-70
2022/03/20 20:34:26;;;;;;;9.32;6.32;;;6.00;53.90;;;;;;7384471;19;20971;-71
2022/03/20 20:36:52;;;;;;;9.07;6.88;;;5.90;54.10;;;;;;7386790;19;22808;-71
2022/03/20 20:39:18;;;;;;;8.53;6.63;;;5.90;54.80;;;;;;7382873;19;20700;-71
2022/03/20 20:41:44;;;;;;;7.47;6.20;;;5.80;55.40;;;;;;7388664;19;20431;-70
2022/03/20 20:44:12;;;;;;;7.05;5.65;;;5.70;55.90;;;;;;7384103;19;20401;-71
2022/03/20 20:46:39;;;;;;;8.23;6.30;;;5.60;55.60;;;;;;7386140;19;20372;-71
2022/03/20 20:49:05;;;;;;;7.93;6.03;;;5.60;56.20;;;;;;7384407;19;20324;-71
2022/03/20 20:51:31;;;;;;;8.23;5.80;;;5.60;56.40;;;;;;7382030;19;20351;-71
2022/03/20 20:53:57;;;;;;;8.48;6.93;;;5.50;56.40;;;;;;7381752;19;20361;-71
2022/03/20 20:56:23;;;;;;;8.33;6.47;;;5.40;57.00;;;;;;7386783;19;21047;-71
2022/03/20 20:58:50;;;;;;;8.70;7.10;;;5.40;57.40;;;;;;7379654;19;20316;-71
2022/03/20 21:01:17;;;;;;;7.18;6.03;;;5.30;57.60;;;;;;7383989;19;20329;-71
2022/03/20 21:03:43;;;;;;;7.53;5.97;;;5.20;57.30;;;;;;7375921;19;20329;-70
2022/03/20 21:06:09;;;;;;;7.57;6.00;;;5.20;57.30;;;;;;7380628;19;20903;-71
2022/03/20 21:11:19;;;;;;;8.90;6.95;;;5.10;57.30;;;;;;7274412;19;2004889;-71
2022/03/20 21:13:45;;;;;;;10.47;6.60;;;5.10;57.40;;;;;;7381240;19;20345;-71
2022/03/20 21:16:12;;;;;;;10.47;6.93;;;5.00;57.60;;;;;;7383491;19;20701;-71
2022/03/20 21:18:40;;;;;;;7.67;5.93;;;4.90;57.70;;;;;;7387132;19;20347;-71
2022/03/20 21:21:06;;;;;;;8.03;6.17;;;4.80;57.50;;;;;;7385262;19;20348;-70
2022/03/20 21:23:32;;;;;;;6.95;5.82;;;4.80;57.80;;;;;;7384077;19;20416;-71
2022/03/20 21:25:58;;;;;;;9.23;6.07;;;4.70;57.80;;;;;;7382885;19;20324;-70
2022/03/20 21:28:24;;;;;;;9.65;6.85;;;4.60;58.20;;;;;;7389483;19;20324;-72
2022/03/20 21:30:52;;;;;;;20.83;14.45;;;4.60;58.20;;;;;;7382664;19;20383;-70
2022/03/20 21:33:18;;;;;;;8.57;6.75;;;4.60;58.30;;;;;;7375212;19;20480;-71
2022/03/20 21:35:45;;;;;;;6.77;5.63;;;4.50;58.80;;;;;;7378678;19;20337;-70
2022/03/20 21:38:11;;;;;;;9.55;6.10;;;4.40;58.70;;;;;;7382842;19;20312;-71
2022/03/20 21:40:39;;;;;;;7.22;5.65;;;4.40;59.00;;;;;;7384805;19;20315;-71
2022/03/20 21:43:05;;;;;;;8.02;5.95;;;4.30;59.20;;;;;;7375144;19;20340;-71
2022/03/20 21:45:32;;;;;;;8.07;6.17;;;4.30;59.70;;;;;;7380744;19;20345;-71
2022/03/20 21:47:58;;;;;;;8.32;6.38;;;4.20;59.80;;;;;;7380624;19;20316;-71
2022/03/20 21:50:24;;;;;;;8.10;6.15;;;4.10;59.90;;;;;;7383521;19;20335;-71
2022/03/20 21:52:50;;;;;;;7.60;5.88;;;4.10;59.80;;;;;;7378321;19;21203;-71
2022/03/20 21:55:16;;;;;;;10.32;6.25;;;4.10;59.90;;;;;;7378703;19;20344;-71
2022/03/20 21:57:42;;;;;;;6.00;5.13;;;4.00;59.90;;;;;;7382910;19;20952;-70
2022/03/20 22:00:08;;;;;;;8.30;6.57;;;4.00;60.70;;;;;;7382518;19;20316;-71
2022/03/20 22:02:50;;;;;;;9.70;6.88;;;3.90;60.40;;;;;;7379639;19;20427;-71
2022/03/20 22:05:18;;;;;;;9.27;6.45;;;3.90;62.30;;;;;;7379925;19;20397;-71
2022/03/20 22:07:45;;;;;;;7.53;5.90;;;3.80;61.10;;;;;;7374357;19;20869;-70
2022/03/20 22:10:10;;;;;;;8.80;6.93;;;3.80;61.50;;;;;;7382480;19;20348;-70
2022/03/20 22:12:36;;;;;;;7.43;5.93;;;3.80;62.00;;;;;;7380088;19;20352;-70
2022/03/20 22:15:03;;;;;;;7.83;6.80;;;3.70;62.30;;;;;;7379584;19;20349;-71
2022/03/20 22:17:30;;;;;;;9.10;5.88;;;3.60;63.00;;;;;;7379881;19;20369;-71
2022/03/20 22:19:57;;;;;;;7.45;6.10;;;3.60;63.30;;;;;;7384823;19;20313;-71
2022/03/20 22:22:22;;;;;;;8.53;6.33;;;3.50;62.80;;;;;;7357920;19;20336;-71
2022/03/20 22:24:48;;;;;;;7.70;6.23;;;3.50;62.60;;;;;;7377643;19;20335;-71
2022/03/20 22:27:14;;;;;;;7.78;6.47;;;3.40;62.40;;;;;;7384571;19;20317;-71
2022/03/20 22:29:43;;;;;;;7.55;6.05;;;3.50;61.70;;;;;;7373868;19;20353;-70
2022/03/20 22:32:09;;;;;;;8.18;6.22;;;3.70;62.10;;;;;;7377398;19;20335;-69
2022/03/20 22:34:35;;;;;;;10.33;7.37;;;3.50;62.10;;;;;;7377954;19;20304;-70
2022/03/20 22:39:49;;;;;;;6.57;5.65;;;3.50;63.50;;;;;;7239587;19;2004389;-71
2022/03/20 22:42:15;;;;;;;7.07;5.75;;;3.40;63.80;;;;;;7379564;19;20368;-70
2022/03/20 22:44:41;;;;;;;6.30;5.63;;;3.40;64.30;;;;;;7332605;19;20400;-71
2022/03/20 22:47:07;;;;;;;8.10;6.63;;;3.20;64.30;;;;;;7379603;19;20702;-71
2022/03/20 22:52:17;;;;;;;10.70;6.80;;;3.20;65.20;;;;;;7376317;19;20349;-71
2022/03/20 22:54:42;;;;;;;7.00;5.72;;;3.20;66.50;;;;;;7376190;19;20353;-71
2022/03/20 22:57:09;;;;;;;7.43;5.90;;;3.10;65.90;;;;;;7384292;19;20785;-71
2022/03/20 22:59:34;;;;;;;9.20;6.07;;;3.10;65.50;;;;;;7376959;19;20388;-70
2022/03/20 23:02:00;;;;;;;8.07;6.53;;;3.10;66.40;;;;;;7376088;19;21019;-71
2022/03/20 23:04:26;;;;;;;11.07;7.18;;;3.00;66.90;;;;;;7380797;19;20316;-71
2022/03/20 23:06:53;;;;;;;8.02;6.93;;;3.00;66.40;;;;;;7381957;19;20339;-71
2022/03/20 23:09:20;;;;;;;10.20;6.13;;;3.00;66.50;;;;;;7373504;19;20347;-71
2022/03/20 23:11:45;;;;;;;10.70;6.53;;;3.00;66.00;;;;;;7382043;19;20767;-71
2022/03/20 23:14:11;;;;;;;8.07;6.25;;;2.90;66.40;;;;;;7379772;19;20373;-70
2022/03/20 23:16:40;;;;;;;7.47;5.83;;;2.80;66.10;;;;;;7384190;19;20328;-71
2022/03/20 23:19:08;;;;;;;7.80;6.17;;;2.80;66.00;;;;;;7380694;19;21116;-71
2022/03/20 23:21:34;;;;;;;8.57;6.75;;;2.80;67.30;;;;;;7377190;19;20675;-71
2022/03/20 23:24:00;;;;;;;9.13;6.18;;;2.70;68.80;;;;;;7381150;19;20341;-70
2022/03/20 23:26:28;;;;;;;8.93;6.00;;;2.50;69.40;;;;;;7377719;19;21227;-71
2022/03/20 23:28:54;;;;;;;9.30;6.55;;;2.50;69.40;;;;;;7383179;19;20340;-71
2022/03/20 23:31:19;;;;;;;7.45;6.25;;;2.40;69.80;;;;;;7381982;19;20341;-71
2022/03/20 23:33:46;;;;;;;8.10;6.65;;;2.30;70.40;;;;;;7374753;19;20353;-69
2022/03/20 23:36:12;;;;;;;8.75;6.25;;;2.30;71.00;;;;;;7371061;19;20341;-69
2022/03/20 23:38:38;;;;;;;7.25;6.07;;;2.20;72.10;;;;;;7381407;19;20323;-69
2022/03/20 23:43:49;;;;;;;8.75;6.35;;;2.00;74.50;;;;;;7378864;19;20343;-68